Airfield :
LOGIN :

Register | Disclaimer

   EN    FR    IT 

 










Legend :    VFR   Marginal VFR   IFR   Intensive IFR   Very Intensive IFR
Visi :
Ceiling :
>= 8 km
>= 3000ft
5 to 8 km
1000 to 3000 ft
1500m to 5 km
500 to 1000 ft
800 to 1500m
200 to 500 ft
< 800m
< 200 ft
Symbols :   Thunderstorms  Fog  Heavy snow  Heavy precipitations  Wind > 20 kt
SIGMETs :     Misc.  Thunderstorms  Icing  Turbulence  Mountain Waves  Volcanic Ashes






- Airport Elevation : 63 ft
- IATA code : BZM


EHWO - Woensdrecht Airbase

CURRENT METAR :
  • 232155Z AUTO 10003KT 040V110 3300 BR OVC004 03/02 Q1026 YLO

EXPIRED METARs :
  • 232142Z AUTO 09004KT 060V130 3500 BR OVC004 03/02 Q1026 YLO
  • 232125Z AUTO 08005KT 060V140 4100 BR OVC005 03/02 Q1026 YLO
  • 232055Z AUTO 06005KT 020V090 4700 BR OVC006 03/02 Q1026 YLO
  • 232031Z AUTO 07004KT 050V120 6000 BR OVC006 03/02 Q1026 YLO
  • 231955Z AUTO 06006KT 040V110 7000 BR SCT007 OVC008 03/01 Q1027 GRN
  • 231940Z AUTO 06006KT 030V110 7000 BR OVC008 03/01 Q1027 GRN
  • 231925Z AUTO 06006KT 030V090 8000 BR BKN009 OVC010 03/01 Q1027 GRN

Expired Forecast.



MET'MAP, your aeronautical weather chart ! - Copyright ORBIFLY December 2007 - Disclaimer

ORBIFLY MET'MAP TEAM :

Programming & Development : Alexandra Zaïnal
Concept & original design : Baudouin d'Aumeries
Assistance for programming : Marc-Olivier Méhu
Technical & hardware support : Manuel Goepfert

Contact : metmap@orbifly.com




SOURCES & CREDITS :

   NOAA